Time;durP1;ratioP1;P1;durP2;ratioP2;P2;SDS_P1;SDS_P2;PMS_P1;PMS_P2;Temp;Humidity;BMP_temperature;BMP_pressure;BME280_temperature;BME280_humidity;BME280_pressure;Samples;Min_cycle;Max_cycle;Signal;HPM_P1;HPM_P2
2022/03/31 00:00:32;;;;;;;14.30;5.38;;;9.00;99.90;;;;;;5052486;28;20033;-75
2022/03/31 00:02:59;;;;;;;6.40;4.88;;;9.20;99.90;;;;;;5042871;28;20455;-75
2022/03/31 00:05:25;;;;;;;7.32;5.40;;;9.20;99.90;;;;;;5035073;28;20048;-75
2022/03/31 00:08:06;;;;;;;11.65;5.35;;;9.10;99.90;;;;;;5036259;28;20025;-74
2022/03/31 00:10:34;;;;;;;6.38;4.93;;;9.10;99.90;;;;;;5036256;28;20467;-75
2022/03/31 00:13:04;;;;;;;14.85;5.45;;;9.30;99.90;;;;;;5036470;28;20041;-75
2022/03/31 00:15:31;;;;;;;9.00;5.85;;;9.30;99.90;;;;;;5036195;28;20025;-75
2022/03/31 00:17:59;;;;;;;10.73;5.28;;;9.60;99.90;;;;;;5034541;28;20037;-76
2022/03/31 00:20:26;;;;;;;8.48;5.05;;;9.80;99.90;;;;;;5036142;28;20068;-75
2022/03/31 00:22:51;;;;;;;6.90;5.03;;;9.90;99.90;;;;;;5036192;28;20018;-75
2022/03/31 00:25:17;;;;;;;7.28;4.70;;;9.60;99.90;;;;;;5035757;28;20409;-75
2022/03/31 00:27:43;;;;;;;8.98;5.97;;;9.60;99.90;;;;;;5035730;28;20053;-75
2022/03/31 00:30:13;;;;;;;6.13;4.97;;;9.50;99.90;;;;;;5035937;28;20036;-75
2022/03/31 00:32:40;;;;;;;7.57;4.72;;;9.50;99.90;;;;;;5035855;28;20167;-76
2022/03/31 00:35:07;;;;;;;7.35;4.70;;;9.50;99.90;;;;;;5035715;28;20037;-75
2022/03/31 00:37:34;;;;;;;10.00;5.03;;;9.60;99.90;;;;;;5035624;28;20042;-74
2022/03/31 00:40:00;;;;;;;9.15;5.45;;;9.60;99.90;;;;;;5035770;28;20355;-75
2022/03/31 00:42:26;;;;;;;11.27;5.70;;;9.60;99.90;;;;;;5035758;28;20033;-75
2022/03/31 00:44:52;;;;;;;17.40;5.60;;;9.60;99.90;;;;;;5035676;28;20120;-75
2022/03/31 00:47:18;;;;;;;13.95;5.68;;;9.60;99.90;;;;;;5043160;28;20453;-75
2022/03/31 00:49:45;;;;;;;8.73;5.45;;;9.60;99.90;;;;;;5055649;28;20036;-76
2022/03/31 00:52:12;;;;;;;9.75;6.03;;;9.60;99.90;;;;;;5055342;28;20090;-75
2022/03/31 00:54:39;;;;;;;9.00;5.80;;;9.50;99.90;;;;;;5055486;28;20021;-75
2022/03/31 00:57:07;;;;;;;9.13;5.43;;;9.10;99.90;;;;;;5055137;28;20033;-75
2022/03/31 00:59:33;;;;;;;11.07;5.63;;;9.00;99.90;;;;;;5055413;28;20037;-75
2022/03/31 01:01:59;;;;;;;9.65;5.72;;;8.80;99.90;;;;;;5054683;28;20413;-75
2022/03/31 01:04:29;;;;;;;14.48;5.50;;;8.80;99.90;;;;;;5055234;28;20131;-74
2022/03/31 01:06:56;;;;;;;8.27;5.43;;;8.70;99.90;;;;;;5055159;28;20044;-75
2022/03/31 01:09:22;;;;;;;8.35;5.65;;;8.40;99.90;;;;;;5055052;28;20075;-75
2022/03/31 01:11:48;;;;;;;8.25;5.57;;;8.30;99.90;;;;;;5053863;28;20033;-75
2022/03/31 01:14:15;;;;;;;6.28;5.20;;;8.10;99.90;;;;;;5055049;28;20043;-75
2022/03/31 01:16:41;;;;;;;9.40;5.38;;;8.00;99.90;;;;;;5053410;28;20033;-75
2022/03/31 01:19:09;;;;;;;6.22;4.47;;;8.00;99.90;;;;;;5055041;28;20560;-72
2022/03/31 01:21:43;;;;;;;7.25;5.00;;;8.00;99.90;;;;;;5054975;28;20056;-75
2022/03/31 01:24:10;;;;;;;6.45;5.32;;;8.10;99.90;;;;;;5054888;28;20074;-74
2022/03/31 01:26:40;;;;;;;12.50;5.35;;;8.20;99.90;;;;;;5054525;28;20120;-75
2022/03/31 01:29:08;;;;;;;11.63;5.50;;;8.20;99.90;;;;;;5054644;28;20075;-74
2022/03/31 01:31:35;;;;;;;12.02;5.88;;;8.10;99.90;;;;;;5054713;28;20057;-75
2022/03/31 01:34:00;;;;;;;12.13;5.65;;;8.10;99.90;;;;;;5054779;28;20031;-75
2022/03/31 01:36:27;;;;;;;11.70;5.45;;;8.00;99.90;;;;;;5054782;28;20517;-75
2022/03/31 01:38:53;;;;;;;9.70;5.63;;;7.80;99.90;;;;;;5053438;28;20045;-75
2022/03/31 01:41:19;;;;;;;11.40;5.40;;;7.60;99.90;;;;;;5054492;28;20033;-75
2022/03/31 01:43:46;;;;;;;14.73;5.55;;;7.50;99.90;;;;;;5054296;28;20929;-75
2022/03/31 01:46:12;;;;;;;9.27;5.75;;;7.40;99.90;;;;;;5054439;28;20082;-75
2022/03/31 01:48:38;;;;;;;13.25;5.85;;;7.30;99.90;;;;;;5054699;28;20413;-75
2022/03/31 01:51:07;;;;;;;12.98;5.60;;;7.30;99.90;;;;;;5053159;28;20033;-75
2022/03/31 01:53:38;;;;;;;22.83;5.90;;;7.20;99.90;;;;;;5053011;28;20029;-75
2022/03/31 01:56:06;;;;;;;11.25;6.40;;;7.10;99.90;;;;;;5040320;28;20038;-75
2022/03/31 01:58:33;;;;;;;14.10;6.55;;;7.10;99.90;;;;;;5033738;28;20029;-74
2022/03/31 02:00:59;;;;;;;12.07;5.75;;;7.00;99.90;;;;;;5034356;28;20072;-75
2022/03/31 02:03:25;;;;;;;18.58;6.75;;;7.00;99.90;;;;;;5048504;28;20033;-75
2022/03/31 02:05:51;;;;;;;11.90;6.55;;;6.80;99.90;;;;;;5053868;28;20017;-75
2022/03/31 02:08:20;;;;;;;8.77;6.38;;;6.70;99.90;;;;;;5052675;28;20040;-75
2022/03/31 02:10:46;;;;;;;19.05;6.32;;;6.70;99.90;;;;;;5054015;28;20025;-75
2022/03/31 02:13:13;;;;;;;8.82;5.63;;;6.80;99.90;;;;;;5053507;28;20040;-74
2022/03/31 02:15:39;;;;;;;11.70;5.45;;;6.70;99.90;;;;;;5053986;28;20056;-74
2022/03/31 02:18:04;;;;;;;15.90;5.97;;;6.70;99.90;;;;;;5053470;28;20134;-75
2022/03/31 02:20:32;;;;;;;11.55;5.35;;;6.50;99.90;;;;;;5053722;28;20175;-75
2022/03/31 02:23:01;;;;;;;10.30;5.43;;;6.40;99.90;;;;;;5053834;28;20024;-75
2022/03/31 02:25:28;;;;;;;7.63;4.65;;;6.30;99.90;;;;;;5053859;28;20037;-75
2022/03/31 02:27:54;;;;;;;7.97;4.13;;;6.10;99.90;;;;;;5053143;28;20029;-75
2022/03/31 02:30:22;;;;;;;7.88;4.22;;;6.10;99.90;;;;;;5053632;28;20521;-75
2022/03/31 02:32:49;;;;;;;7.28;4.55;;;5.90;99.90;;;;;;5053347;28;20072;-76
2022/03/31 02:35:16;;;;;;;6.80;4.10;;;5.70;99.90;;;;;;5053371;28;20075;-75
2022/03/31 02:37:41;;;;;;;7.38;4.70;;;5.80;99.90;;;;;;5053313;28;20462;-75
2022/03/31 02:40:07;;;;;;;10.25;4.65;;;5.70;99.90;;;;;;5053462;28;20068;-75
2022/03/31 02:42:35;;;;;;;6.10;4.25;;;5.60;99.90;;;;;;5053103;28;20032;-75
2022/03/31 02:45:05;;;;;;;5.15;4.43;;;5.50;99.90;;;;;;5053271;28;20033;-75
2022/03/31 02:47:32;;;;;;;9.38;4.15;;;5.50;99.90;;;;;;5052823;28;20029;-76
2022/03/31 02:49:58;;;;;;;5.07;3.30;;;5.70;99.90;;;;;;5053333;28;20060;-74
2022/03/31 02:52:24;;;;;;;7.05;3.70;;;5.50;99.90;;;;;;5053394;28;20027;-75
2022/03/31 02:57:34;;;;;;;6.60;4.45;;;5.50;99.90;;;;;;5052869;28;20114;-75
2022/03/31 03:00:00;;;;;;;7.22;3.85;;;5.30;99.90;;;;;;5052931;28;20017;-75
2022/03/31 03:02:26;;;;;;;5.03;3.60;;;5.30;99.90;;;;;;5046518;28;20107;-75
2022/03/31 03:04:51;;;;;;;5.53;3.90;;;5.10;99.90;;;;;;5032828;28;20021;-75
2022/03/31 03:07:18;;;;;;;7.07;4.15;;;4.90;99.90;;;;;;5033173;28;20461;-74
2022/03/31 03:09:43;;;;;;;6.88;3.67;;;4.90;99.90;;;;;;5033154;28;20022;-74
2022/03/31 03:12:10;;;;;;;4.90;2.92;;;4.90;99.90;;;;;;5032865;28;20398;-71
2022/03/31 03:14:36;;;;;;;4.95;2.75;;;4.60;99.90;;;;;;5032700;28;20029;-73
2022/03/31 03:17:02;;;;;;;3.28;2.20;;;4.20;99.90;;;;;;5032982;28;20029;-73
2022/03/31 03:19:28;;;;;;;3.80;2.38;;;4.10;99.90;;;;;;5031710;28;20122;-72
2022/03/31 03:21:53;;;;;;;2.72;2.33;;;4.20;99.90;;;;;;5032996;28;20381;-73
2022/03/31 03:24:19;;;;;;;3.30;2.40;;;4.10;99.90;;;;;;5032663;28;20040;-72
2022/03/31 03:26:45;;;;;;;4.15;2.22;;;4.10;99.90;;;;;;5032696;28;20030;-73
2022/03/31 03:29:11;;;;;;;5.45;2.40;;;4.20;99.90;;;;;;5032761;28;20124;-73
2022/03/31 03:31:37;;;;;;;2.42;2.05;;;4.10;99.90;;;;;;5032740;28;20021;-73
2022/03/31 03:34:03;;;;;;;4.13;2.80;;;4.10;99.90;;;;;;5032882;28;20076;-72
2022/03/31 03:36:29;;;;;;;4.00;2.75;;;4.00;99.90;;;;;;5032985;28;20022;-74
2022/03/31 03:38:55;;;;;;;4.78;2.13;;;4.00;99.90;;;;;;5033199;28;20055;-74
2022/03/31 03:41:20;;;;;;;7.28;3.45;;;4.00;99.90;;;;;;5036575;28;20021;-74
2022/03/31 03:43:46;;;;;;;5.60;3.72;;;4.00;99.90;;;;;;5036766;28;20033;-73
2022/03/31 03:46:12;;;;;;;7.53;4.03;;;3.90;99.90;;;;;;5036959;28;20072;-72
2022/03/31 03:48:38;;;;;;;7.97;4.20;;;3.90;99.90;;;;;;5055624;28;20025;-74
2022/03/31 03:51:04;;;;;;;9.68;3.92;;;3.90;99.90;;;;;;5055214;28;20107;-74
2022/03/31 03:53:30;;;;;;;5.13;3.60;;;3.90;99.90;;;;;;5056635;28;20024;-73
2022/03/31 03:55:56;;;;;;;7.03;4.20;;;3.90;99.90;;;;;;5056350;28;20052;-74
2022/03/31 03:58:22;;;;;;;9.15;4.07;;;3.80;99.90;;;;;;5055169;28;20033;-75
2022/03/31 04:00:48;;;;;;;6.03;4.43;;;3.90;99.90;;;;;;5056270;28;20053;-75
2022/03/31 04:03:14;;;;;;;4.78;2.78;;;3.90;99.90;;;;;;5041943;28;20041;-75
2022/03/31 04:05:39;;;;;;;10.80;3.35;;;3.80;99.90;;;;;;5036277;28;20029;-75
2022/03/31 04:08:05;;;;;;;5.65;2.60;;;3.80;99.90;;;;;;5035158;28;20026;-75
2022/03/31 04:10:34;;;;;;;3.67;2.90;;;3.90;99.90;;;;;;5035967;28;20026;-74
2022/03/31 04:13:00;;;;;;;2.30;2.03;;;3.70;99.90;;;;;;5036436;28;20040;-74
2022/03/31 04:15:26;;;;;;;7.47;2.10;;;3.60;99.90;;;;;;5036133;28;20029;-72
2022/03/31 04:17:51;;;;;;;2.08;1.88;;;3.50;99.90;;;;;;5036507;28;20042;-73
2022/03/31 04:20:17;;;;;;;3.67;2.63;;;3.60;99.90;;;;;;5036179;28;20072;-74
2022/03/31 04:22:43;;;;;;;3.10;2.58;;;3.60;99.90;;;;;;5036076;28;20029;-74
2022/03/31 04:25:10;;;;;;;2.53;2.30;;;3.70;99.90;;;;;;5034361;28;20109;-74
2022/03/31 04:27:38;;;;;;;3.70;2.72;;;3.90;99.90;;;;;;5035898;28;20045;-74
2022/03/31 04:30:06;;;;;;;3.70;2.58;;;3.80;99.90;;;;;;5036069;28;20026;-75
2022/03/31 04:32:32;;;;;;;3.65;2.70;;;3.70;99.90;;;;;;5036014;28;20112;-74
2022/03/31 04:34:57;;;;;;;4.18;3.10;;;3.90;99.90;;;;;;5034489;28;20113;-75
2022/03/31 04:37:23;;;;;;;4.65;3.50;;;4.00;99.90;;;;;;5035560;28;20037;-74
2022/03/31 04:39:49;;;;;;;3.80;3.40;;;3.90;99.90;;;;;;5035303;28;20072;-74
2022/03/31 04:42:15;;;;;;;4.78;3.45;;;3.90;99.90;;;;;;5035958;28;20107;-74
2022/03/31 04:44:40;;;;;;;9.70;4.50;;;3.80;99.90;;;;;;5035599;28;20021;-74
2022/03/31 04:47:07;;;;;;;5.28;4.78;;;3.80;99.90;;;;;;5041628;28;20048;-74
2022/03/31 04:49:33;;;;;;;8.27;5.03;;;3.90;99.90;;;;;;5055593;28;20025;-75
2022/03/31 04:51:59;;;;;;;6.53;5.63;;;4.00;99.90;;;;;;5055146;28;20032;-74
2022/03/31 04:54:25;;;;;;;6.95;5.38;;;3.90;99.90;;;;;;5055321;28;20082;-75
2022/03/31 04:56:51;;;;;;;6.50;5.28;;;3.90;99.90;;;;;;5055309;28;20029;-75
2022/03/31 04:59:17;;;;;;;7.38;5.53;;;3.90;99.90;;;;;;5054255;28;20035;-74
2022/03/31 05:01:43;;;;;;;7.53;5.43;;;3.90;99.90;;;;;;5054530;28;20075;-75
2022/03/31 05:04:11;;;;;;;4.95;4.13;;;4.00;99.90;;;;;;5035443;28;20025;-74
2022/03/31 05:06:37;;;;;;;7.03;3.40;;;3.90;99.90;;;;;;5034914;28;20072;-74
2022/03/31 05:09:03;;;;;;;5.70;3.67;;;3.90;99.90;;;;;;5035350;28;20065;-75
2022/03/31 05:11:29;;;;;;;4.10;3.70;;;3.80;99.90;;;;;;5034976;28;20037;-75
2022/03/31 05:13:55;;;;;;;6.40;3.90;;;3.80;99.90;;;;;;5035164;28;20034;-75
2022/03/31 05:16:20;;;;;;;4.70;3.50;;;3.90;99.90;;;;;;5035100;28;20022;-75
2022/03/31 05:18:47;;;;;;;4.50;3.70;;;3.90;99.90;;;;;;5035099;28;20045;-75
2022/03/31 05:21:14;;;;;;;5.97;3.70;;;3.90;99.90;;;;;;5034564;28;20071;-75
2022/03/31 05:23:40;;;;;;;5.32;4.18;;;3.90;99.90;;;;;;5034881;28;20044;-74
2022/03/31 05:26:06;;;;;;;6.07;5.00;;;4.00;99.90;;;;;;5034811;28;20033;-74
2022/03/31 05:28:32;;;;;;;4.32;3.70;;;3.90;99.90;;;;;;5034749;28;20485;-75
2022/03/31 05:30:58;;;;;;;6.80;4.03;;;3.90;99.90;;;;;;5034847;28;20362;-74
2022/03/31 05:33:24;;;;;;;5.20;4.68;;;4.00;99.90;;;;;;5034868;28;20056;-75
2022/03/31 05:35:50;;;;;;;4.25;3.88;;;3.90;99.90;;;;;;5034460;28;20104;-74
2022/03/31 05:38:15;;;;;;;5.68;4.60;;;4.00;99.90;;;;;;5034451;28;20151;-74
2022/03/31 05:40:41;;;;;;;4.97;4.47;;;4.00;99.90;;;;;;5034447;28;20497;-75
2022/03/31 05:43:07;;;;;;;12.85;4.55;;;4.00;99.90;;;;;;5034561;28;20095;-75
2022/03/31 05:45:33;;;;;;;5.15;4.65;;;4.00;99.90;;;;;;5034603;28;20474;-75
2022/03/31 05:47:59;;;;;;;5.65;4.40;;;4.10;99.90;;;;;;5046641;28;20100;-75
2022/03/31 05:50:25;;;;;;;6.45;5.20;;;4.10;99.90;;;;;;5052230;28;20043;-71
2022/03/31 05:52:51;;;;;;;10.15;5.47;;;4.10;99.90;;;;;;5047684;28;20028;-76
2022/03/31 05:55:19;;;;;;;6.10;5.20;;;4.10;99.90;;;;;;5053897;28;20035;-74
2022/03/31 05:57:45;;;;;;;10.93;6.57;;;4.10;99.90;;;;;;5052433;28;20037;-76
2022/03/31 06:00:18;;;;;;;5.97;4.15;;;4.20;99.90;;;;;;5028449;28;20400;-76
2022/03/31 06:02:46;;;;;;;4.70;4.07;;;4.20;99.90;;;;;;5039412;28;20409;-75
2022/03/31 06:05:12;;;;;;;3.67;3.20;;;4.20;99.90;;;;;;5051695;28;20037;-75
2022/03/31 06:07:38;;;;;;;3.47;3.08;;;4.20;99.90;;;;;;5048716;28;20026;-75
2022/03/31 06:10:05;;;;;;;5.05;3.15;;;4.20;99.90;;;;;;5033319;28;20449;-75
2022/03/31 06:12:31;;;;;;;3.70;3.30;;;4.20;99.90;;;;;;5032472;28;20108;-74
2022/03/31 06:14:57;;;;;;;4.28;3.00;;;4.20;99.90;;;;;;5031546;28;20071;-75
2022/03/31 06:17:23;;;;;;;4.28;3.28;;;4.20;99.90;;;;;;5032250;28;20041;-74
2022/03/31 06:19:49;;;;;;;5.80;3.30;;;4.20;99.90;;;;;;5032181;28;20018;-74
2022/03/31 06:22:15;;;;;;;3.67;3.35;;;4.10;99.90;;;;;;5047354;28;20486;-76
2022/03/31 06:24:41;;;;;;;5.18;4.20;;;4.10;99.90;;;;;;5053069;28;20029;-76
2022/03/31 06:27:09;;;;;;;4.07;3.67;;;4.20;99.90;;;;;;5053430;28;20029;-76
2022/03/31 06:29:35;;;;;;;5.90;4.25;;;4.20;99.90;;;;;;5048504;28;20029;-75
2022/03/31 06:32:02;;;;;;;5.55;4.57;;;4.20;99.90;;;;;;5051532;28;20501;-74
2022/03/31 06:34:28;;;;;;;3.83;3.42;;;4.30;99.90;;;;;;5051792;28;20551;-75
2022/03/31 06:36:55;;;;;;;5.55;3.95;;;4.30;99.90;;;;;;5052724;28;20029;-76
2022/03/31 06:39:21;;;;;;;7.72;3.78;;;4.30;99.90;;;;;;5052983;28;20044;-76
2022/03/31 06:41:47;;;;;;;4.78;3.75;;;4.40;99.90;;;;;;5052815;28;20409;-76
2022/03/31 06:44:16;;;;;;;6.20;4.38;;;4.50;99.90;;;;;;5051659;28;20119;-74
2022/03/31 06:46:42;;;;;;;4.18;3.78;;;4.40;99.90;;;;;;5052641;28;20112;-75
2022/03/31 06:49:09;;;;;;;4.75;4.25;;;4.60;99.90;;;;;;5052509;28;20036;-74
2022/03/31 06:51:35;;;;;;;4.68;3.60;;;4.60;99.90;;;;;;5042522;28;20417;-76
2022/03/31 06:54:02;;;;;;;4.50;3.28;;;4.60;99.90;;;;;;5032946;28;20471;-75
2022/03/31 06:56:30;;;;;;;5.63;3.90;;;4.70;99.90;;;;;;5032627;28;20018;-75
2022/03/31 06:58:57;;;;;;;4.65;3.97;;;4.70;99.90;;;;;;5033223;28;20041;-75
2022/03/31 07:01:23;;;;;;;5.28;4.00;;;4.80;99.90;;;;;;5050600;28;20032;-75
2022/03/31 07:03:50;;;;;;;9.50;4.32;;;4.70;99.90;;;;;;5051643;28;20117;-74
2022/03/31 07:06:16;;;;;;;6.72;4.47;;;4.80;99.90;;;;;;5051402;28;20025;-76
2022/03/31 07:08:42;;;;;;;4.85;3.72;;;4.90;99.90;;;;;;5052421;28;20025;-75
2022/03/31 07:11:09;;;;;;;11.77;7.65;;;4.70;99.90;;;;;;5052532;28;20036;-75
2022/03/31 07:13:36;;;;;;;14.15;6.95;;;4.70;99.90;;;;;;5051588;28;20070;-76
2022/03/31 07:16:01;;;;;;;6.10;5.00;;;4.50;99.90;;;;;;5052431;28;20029;-75
2022/03/31 07:18:27;;;;;;;4.82;3.95;;;4.70;99.90;;;;;;5051991;28;20501;-75
2022/03/31 07:20:53;;;;;;;3.63;2.88;;;4.60;99.90;;;;;;5052118;28;20021;-75
2022/03/31 07:23:21;;;;;;;9.93;3.22;;;4.70;99.90;;;;;;5052586;28;20043;-76
2022/03/31 07:25:47;;;;;;;10.32;2.80;;;4.60;99.90;;;;;;5052320;28;20029;-76
2022/03/31 07:28:14;;;;;;;5.40;3.03;;;4.60;99.90;;;;;;5051637;28;20500;-75
2022/03/31 07:30:39;;;;;;;3.90;2.60;;;4.70;99.90;;;;;;5038455;28;20072;-74
2022/03/31 07:33:05;;;;;;;4.38;3.20;;;4.70;99.90;;;;;;5031562;28;20481;-76
2022/03/31 07:35:33;;;;;;;11.38;3.45;;;4.70;99.90;;;;;;5032048;28;20025;-75
2022/03/31 07:38:03;;;;;;;6.88;4.28;;;4.80;99.90;;;;;;5032129;28;20071;-75
2022/03/31 07:40:29;;;;;;;11.23;4.30;;;5.10;99.90;;;;;;5032158;28;20017;-74
2022/03/31 07:42:55;;;;;;;8.00;2.40;;;5.00;99.90;;;;;;5032417;28;20497;-76
2022/03/31 07:45:25;;;;;;;4.47;2.80;;;4.80;99.90;;;;;;5031008;28;20454;-76
2022/03/31 07:47:55;;;;;;;4.30;3.45;;;4.90;99.90;;;;;;5043388;28;20418;-75
2022/03/31 07:50:30;;;;;;;7.55;3.40;;;4.90;99.90;;;;;;5049701;28;20539;-77
2022/03/31 07:52:56;;;;;;;7.03;3.30;;;4.90;99.90;;;;;;5031852;28;20033;-76
2022/03/31 07:55:23;;;;;;;6.28;3.65;;;4.90;99.90;;;;;;5032545;28;20021;-75
2022/03/31 07:57:50;;;;;;;4.60;3.60;;;5.10;99.90;;;;;;5032408;28;20045;-76
2022/03/31 08:00:17;;;;;;;5.75;3.42;;;5.00;99.90;;;;;;5031122;28;20047;-76
2022/03/31 08:02:45;;;;;;;6.03;3.38;;;5.10;99.90;;;;;;5040684;28;20413;-76
2022/03/31 08:05:14;;;;;;;5.55;4.00;;;5.20;99.90;;;;;;5052381;28;20029;-76
2022/03/31 08:07:40;;;;;;;12.45;7.90;;;5.40;99.90;;;;;;5051199;28;20123;-76
2022/03/31 08:10:07;;;;;;;10.05;5.22;;;5.50;99.90;;;;;;5052302;28;20100;-76
2022/03/31 08:12:36;;;;;;;4.50;3.30;;;5.70;99.90;;;;;;5052305;28;20397;-75
2022/03/31 08:15:05;;;;;;;4.72;3.10;;;5.60;99.90;;;;;;5050671;28;20051;-76
2022/03/31 08:17:31;;;;;;;3.38;2.58;;;5.70;99.90;;;;;;5050898;28;20033;-76
2022/03/31 08:19:57;;;;;;;4.93;3.45;;;5.70;99.90;;;;;;5052184;28;20045;-76
2022/03/31 08:22:23;;;;;;;7.68;4.07;;;5.60;99.90;;;;;;5052186;28;20031;-77
2022/03/31 08:24:50;;;;;;;6.60;3.22;;;5.70;99.90;;;;;;5052219;28;20042;-76
2022/03/31 08:27:15;;;;;;;7.97;4.18;;;5.80;99.90;;;;;;5055859;28;20031;-76
2022/03/31 08:29:41;;;;;;;10.15;5.85;;;5.90;99.90;;;;;;5055790;28;20492;-76
2022/03/31 08:32:08;;;;;;;8.68;3.63;;;5.80;99.90;;;;;;5054693;28;20025;-76
2022/03/31 08:34:34;;;;;;;7.57;3.20;;;6.00;99.90;;;;;;5055862;28;20100;-75
2022/03/31 08:37:00;;;;;;;7.13;3.40;;;6.30;99.90;;;;;;5055585;28;20470;-75
2022/03/31 08:39:26;;;;;;;3.63;2.42;;;6.60;99.90;;;;;;5054575;28;20036;-73
2022/03/31 08:41:52;;;;;;;4.03;2.22;;;6.50;99.90;;;;;;5055147;28;20355;-74
2022/03/31 08:44:20;;;;;;;4.25;2.25;;;6.80;99.90;;;;;;5045956;28;20124;-75
2022/03/31 08:46:48;;;;;;;3.28;2.25;;;6.70;99.90;;;;;;5038908;28;20100;-75
2022/03/31 08:49:13;;;;;;;7.70;3.28;;;6.80;99.90;;;;;;5054362;28;20040;-75
2022/03/31 08:51:44;;;;;;;4.82;3.45;;;6.90;99.90;;;;;;5055082;28;20025;-75
2022/03/31 08:54:10;;;;;;;51.58;24.55;;;7.00;99.90;;;;;;5055262;28;20052;-75
2022/03/31 08:56:37;;;;;;;18.42;9.80;;;7.00;99.90;;;;;;5055274;28;20037;-74
2022/03/31 08:59:04;;;;;;;12.23;6.38;;;7.30;99.90;;;;;;5054916;28;20049;-76
2022/03/31 09:01:32;;;;;;;9.20;5.43;;;7.50;99.90;;;;;;5055266;28;20029;-76
2022/03/31 09:03:58;;;;;;;2.95;2.67;;;7.50;99.90;;;;;;5036184;28;20041;-76
2022/03/31 09:06:27;;;;;;;6.50;4.25;;;7.20;99.90;;;;;;5050518;28;20017;-75
2022/03/31 09:09:01;;;;;;;4.65;3.08;;;7.00;99.90;;;;;;5054467;28;20429;-77
2022/03/31 09:11:35;;;;;;;7.43;3.72;;;7.00;99.90;;;;;;5054665;28;20072;-76
2022/03/31 09:14:03;;;;;;;5.13;3.55;;;7.00;99.90;;;;;;5054211;28;20520;-76
2022/03/31 09:16:34;;;;;;;4.50;3.15;;;7.00;99.90;;;;;;5054329;28;20458;-76
2022/03/31 09:19:02;;;;;;;6.13;2.30;;;7.20;99.90;;;;;;5054487;28;20036;-76
2022/03/31 09:21:30;;;;;;;3.22;2.30;;;7.30;99.90;;;;;;5054704;28;20358;-76
2022/03/31 09:23:57;;;;;;;5.18;2.60;;;7.40;99.90;;;;;;5054388;28;20108;-76
2022/03/31 09:26:27;;;;;;;5.28;2.22;;;7.30;99.90;;;;;;5054447;28;20393;-76
2022/03/31 09:28:55;;;;;;;3.42;2.47;;;7.20;99.90;;;;;;5054389;28;20096;-76
2022/03/31 09:31:25;;;;;;;5.50;2.00;;;7.50;99.90;;;;;;5053015;28;20040;-77
2022/03/31 09:33:57;;;;;;;5.32;2.55;;;7.60;99.90;;;;;;5054341;28;20054;-76
2022/03/31 09:36:24;;;;;;;5.22;1.83;;;7.90;99.90;;;;;;5052678;28;20029;-78
2022/03/31 09:39:02;;;;;;;4.95;2.42;;;8.10;99.90;;;;;;5053909;28;20051;-75
2022/03/31 09:41:30;;;;;;;6.00;2.55;;;8.20;99.90;;;;;;5054162;28;20037;-77
2022/03/31 09:43:58;;;;;;;3.42;2.70;;;8.10;99.90;;;;;;5035944;28;20212;-78
2022/03/31 09:46:26;;;;;;;2.85;1.92;;;8.40;99.90;;;;;;5052514;28;20037;-78
2022/03/31 09:48:54;;;;;;;5.63;2.58;;;8.30;99.90;;;;;;5054141;28;20025;-77
2022/03/31 09:51:21;;;;;;;5.20;3.45;;;8.10;99.90;;;;;;5053911;28;20493;-77
2022/03/31 09:53:49;;;;;;;3.85;2.47;;;8.20;99.90;;;;;;5053731;28;20144;-76
2022/03/31 09:56:24;;;;;;;5.10;2.90;;;8.10;99.90;;;;;;5053665;28;20059;-75
2022/03/31 09:58:51;;;;;;;6.30;3.42;;;8.20;99.90;;;;;;5052884;28;20051;-73
2022/03/31 10:01:18;;;;;;;7.05;2.90;;;8.20;99.90;;;;;;5053460;28;20108;-75
2022/03/31 10:03:44;;;;;;;4.72;2.65;;;8.30;99.90;;;;;;5035234;28;20458;-75
2022/03/31 10:06:12;;;;;;;7.45;3.38;;;8.20;99.90;;;;;;5048732;28;20505;-75
2022/03/31 10:08:40;;;;;;;9.65;3.25;;;8.40;99.90;;;;;;5052381;28;20037;-76
2022/03/31 10:11:10;;;;;;;5.03;2.80;;;8.50;99.90;;;;;;5053303;28;20090;-76
2022/03/31 10:13:46;;;;;;;3.10;2.30;;;8.30;99.90;;;;;;5053712;28;20036;-74
2022/03/31 10:16:19;;;;;;;5.05;2.53;;;8.20;99.90;;;;;;5053766;28;20029;-75
2022/03/31 10:18:49;;;;;;;12.50;3.22;;;8.30;99.90;;;;;;5052895;28;20350;-75
2022/03/31 10:21:30;;;;;;;4.25;2.92;;;8.10;99.90;;;;;;5053649;28;20021;-75
2022/03/31 10:26:41;;;;;;;5.03;2.78;;;7.80;99.90;;;;;;5052868;28;20029;-75
2022/03/31 10:29:12;;;;;;;5.93;3.00;;;7.80;99.90;;;;;;5053098;28;20527;-77
2022/03/31 10:31:41;;;;;;;6.30;3.03;;;7.80;99.90;;;;;;5053439;28;20039;-77
2022/03/31 10:34:08;;;;;;;8.27;3.85;;;7.70;99.90;;;;;;5051830;28;20056;-76
2022/03/31 10:36:41;;;;;;;41.60;5.25;;;7.40;99.90;;;;;;5053414;28;20025;-76
2022/03/31 10:39:23;;;;;;;8.70;4.10;;;7.60;99.90;;;;;;5051497;28;20040;-75
2022/03/31 10:42:02;;;;;;;9.25;3.53;;;7.60;99.90;;;;;;5045803;28;20045;-75
2022/03/31 10:44:27;;;;;;;9.43;2.83;;;7.70;99.90;;;;;;5031230;28;20429;-75
2022/03/31 10:47:08;;;;;;;4.32;2.45;;;7.30;99.90;;;;;;5033913;28;20088;-74
2022/03/31 10:49:35;;;;;;;8.77;2.65;;;7.30;99.90;;;;;;5030723;28;20501;-75
2022/03/31 10:52:23;;;;;;;12.95;3.28;;;7.30;99.90;;;;;;5032875;28;20014;-84
2022/03/31 10:54:51;;;;;;;5.95;3.00;;;7.40;99.90;;;;;;5032259;28;20038;-83
2022/03/31 10:57:18;;;;;;;5.15;2.85;;;7.50;99.90;;;;;;5031214;28;20055;-84
2022/03/31 10:59:49;;;;;;;46.58;5.88;;;7.80;99.90;;;;;;5033145;28;20501;-83
2022/03/31 11:02:18;;;;;;;5.75;2.60;;;7.90;99.90;;;;;;5053535;28;20079;-75
2022/03/31 11:04:56;;;;;;;6.25;2.75;;;7.90;99.90;;;;;;5031654;28;20116;-83
2022/03/31 11:07:27;;;;;;;18.40;3.30;;;8.10;99.90;;;;;;5032989;28;20033;-83
2022/03/31 11:10:11;;;;;;;2.60;2.40;;;8.10;99.90;;;;;;5032765;28;20401;-83
2022/03/31 11:12:38;;;;;;;3.03;2.30;;;8.20;99.90;;;;;;5033214;28;20069;-84
2022/03/31 11:15:07;;;;;;;5.82;3.10;;;8.60;99.90;;;;;;5032998;28;20013;-84
2022/03/31 11:17:35;;;;;;;5.40;3.20;;;8.70;99.90;;;;;;5032889;28;20037;-84
2022/03/31 11:20:12;;;;;;;4.75;3.33;;;8.80;99.90;;;;;;5032531;28;20536;-84
2022/03/31 11:22:37;;;;;;;12.85;4.65;;;9.10;99.90;;;;;;5032825;28;20037;-83
2022/03/31 11:25:12;;;;;;;12.13;5.03;;;9.10;99.90;;;;;;5032247;28;20029;-84
2022/03/31 11:27:40;;;;;;;9.68;5.63;;;9.00;99.90;;;;;;5031492;28;20029;-85
2022/03/31 11:30:11;;;;;;;5.85;4.80;;;9.00;99.90;;;;;;5031511;28;20032;-84
2022/03/31 11:32:37;;;;;;;9.38;5.40;;;9.10;99.90;;;;;;5031510;28;20482;-84
2022/03/31 11:35:11;;;;;;;29.08;5.60;;;9.20;99.90;;;;;;5032554;28;20028;-84
2022/03/31 11:37:53;;;;;;;17.52;5.75;;;9.20;99.90;;;;;;5032433;28;20057;-84
2022/03/31 11:40:20;;;;;;;31.08;5.35;;;8.90;99.90;;;;;;5032097;28;20034;-84
2022/03/31 11:42:48;;;;;;;7.00;3.65;;;9.40;99.90;;;;;;5032690;28;20033;-85
2022/03/31 11:45:34;;;;;;;10.35;3.22;;;9.70;99.90;;;;;;5032394;28;20061;-84
2022/03/31 11:48:09;;;;;;;12.13;3.10;;;9.80;99.90;;;;;;5046238;28;20029;-85
2022/03/31 11:50:38;;;;;;;14.82;2.53;;;9.80;99.90;;;;;;5052503;28;20029;-82
2022/03/31 11:53:16;;;;;;;10.75;2.40;;;9.60;99.90;;;;;;5051101;28;20108;-85
2022/03/31 11:55:42;;;;;;;27.00;4.20;;;9.70;99.90;;;;;;5050711;28;20041;-85
2022/03/31 11:58:08;;;;;;;25.40;3.00;;;9.80;99.90;;;;;;5032392;28;20099;-84
2022/03/31 12:00:34;;;;;;;7.05;2.95;;;9.40;99.90;;;;;;5033986;28;20046;-85
2022/03/31 12:03:09;;;;;;;3.67;2.90;;;9.60;99.90;;;;;;5047362;28;20063;-85
2022/03/31 12:05:35;;;;;;;7.13;2.63;;;9.40;99.90;;;;;;5054918;28;20082;-85
2022/03/31 12:08:01;;;;;;;6.03;2.78;;;9.20;99.90;;;;;;5056265;28;20037;-85
2022/03/31 12:10:29;;;;;;;7.47;3.15;;;9.30;99.90;;;;;;5056243;28;20044;-84
2022/03/31 12:12:58;;;;;;;3.72;3.42;;;9.50;99.90;;;;;;5056364;28;20032;-85
2022/03/31 12:15:28;;;;;;;3.47;3.03;;;9.80;99.90;;;;;;5056153;28;20017;-85
2022/03/31 12:18:03;;;;;;;3.65;1.77;;;10.20;98.40;;;;;;5056352;28;20118;-85
2022/03/31 12:20:30;;;;;;;5.55;2.17;;;10.60;96.80;;;;;;5056135;28;20469;-84
2022/03/31 12:22:56;;;;;;;4.50;2.40;;;10.40;96.80;;;;;;5056001;28;20029;-85
2022/03/31 12:25:36;;;;;;;7.95;2.25;;;10.30;96.40;;;;;;5055775;28;20032;-81
2022/03/31 12:28:07;;;;;;;4.57;2.38;;;10.80;96.30;;;;;;5056110;28;20041;-85
2022/03/31 12:30:48;;;;;;;4.50;1.95;;;10.20;94.50;;;;;;5056104;28;20086;-85
2022/03/31 12:33:22;;;;;;;11.88;2.97;;;9.80;96.60;;;;;;5056427;28;20029;-86
2022/03/31 12:36:00;;;;;;;9.43;1.98;;;10.50;97.40;;;;;;5056737;28;20092;-84
2022/03/31 12:38:40;;;;;;;4.95;2.00;;;10.70;94.90;;;;;;5056738;28;20403;-82
2022/03/31 12:41:14;;;;;;;10.55;2.85;;;10.20;95.20;;;;;;5055250;28;20032;-81
2022/03/31 12:43:40;;;;;;;2.38;2.00;;;10.10;96.40;;;;;;5066992;28;20032;-75
2022/03/31 12:46:16;;;;;;;3.65;2.30;;;10.20;96.70;;;;;;5065472;28;20033;-76
2022/03/31 12:49:12;;;;;;;3.05;2.00;;;10.60;95.80;;;;;;5056398;28;20039;-84
2022/03/31 12:52:00;;;;;;;3.90;2.28;;;10.70;96.00;;;;;;5051731;28;20459;-86
2022/03/31 12:54:25;;;;;;;4.53;2.40;;;11.90;96.50;;;;;;5055828;28;20396;-86
2022/03/31 12:56:54;;;;;;;3.78;2.25;;;12.20;94.20;;;;;;5055621;28;20113;-87
2022/03/31 12:59:26;;;;;;;4.72;2.42;;;11.90;93.80;;;;;;5055673;28;20037;-87
2022/03/31 13:01:56;;;;;;;;;;;10.80;96.30;;;;;;5054477;28;20382;-87
2022/03/31 13:04:21;;;;;;;4.47;3.10;;;10.10;96.70;;;;;;5035670;28;19956;-87